Time;durP1;ratioP1;P1;durP2;ratioP2;P2;SDS_P1;SDS_P2;PMS_P1;PMS_P2;Temp;Humidity;BMP_temperature;BMP_pressure;BME280_temperature;BME280_humidity;BME280_pressure;Samples;Min_cycle;Max_cycle;Signal;HPM_P1;HPM_P2
2023/10/31 00:01:03;;;;;;;18.80;17.50;;;14.90;81.90;;;;;;4876010;29;20488;-49
2023/10/31 00:03:29;;;;;;;18.90;17.73;;;14.90;98.00;;;;;;4888424;29;20209;-54
2023/10/31 00:05:54;;;;;;;19.63;18.30;;;14.90;99.90;;;;;;4877411;29;20265;-44
2023/10/31 00:08:20;;;;;;;19.53;18.23;;;14.90;99.90;;;;;;4870205;29;20230;-48
2023/10/31 00:10:46;;;;;;;19.80;18.40;;;14.90;99.90;;;;;;4860884;29;20330;-50
2023/10/31 00:13:12;;;;;;;20.70;19.10;;;14.80;99.90;;;;;;4873825;29;20602;-46
2023/10/31 00:15:37;;;;;;;20.17;18.47;;;14.80;99.90;;;;;;4867016;29;20929;-49
2023/10/31 00:18:03;;;;;;;20.07;18.57;;;14.70;99.90;;;;;;4867266;29;20444;-53
2023/10/31 00:20:29;;;;;;;19.40;18.00;;;14.70;99.90;;;;;;4860690;29;20268;-47
2023/10/31 00:22:55;;;;;;;20.77;19.23;;;14.70;99.90;;;;;;4865653;29;20207;-47
2023/10/31 00:25:20;;;;;;;20.70;19.20;;;14.70;99.90;;;;;;4877528;29;20425;-51
2023/10/31 00:27:46;;;;;;;21.00;19.30;;;14.70;99.90;;;;;;4877868;29;20219;-50
2023/10/31 00:30:11;;;;;;;20.57;19.07;;;14.60;99.90;;;;;;4878461;29;20232;-47
2023/10/31 00:32:37;;;;;;;19.57;18.27;;;14.60;99.90;;;;;;4867199;29;20208;-49
2023/10/31 00:35:03;;;;;;;20.03;18.70;;;14.50;99.90;;;;;;4886976;29;20270;-49
2023/10/31 00:37:28;;;;;;;20.40;18.47;;;14.50;99.90;;;;;;4877210;29;20874;-51
2023/10/31 00:39:54;;;;;;;20.43;18.77;;;14.40;99.90;;;;;;4874762;29;20188;-46
2023/10/31 00:42:20;;;;;;;21.30;19.67;;;14.40;99.90;;;;;;4867085;29;20184;-49
2023/10/31 00:44:45;;;;;;;21.37;19.87;;;14.40;99.90;;;;;;4870869;29;20244;-48
2023/10/31 00:47:11;;;;;;;23.27;21.07;;;14.30;99.90;;;;;;4876985;29;20214;-45
2023/10/31 00:49:37;;;;;;;22.10;20.33;;;14.30;99.90;;;;;;4876150;29;20211;-47
2023/10/31 00:52:03;;;;;;;22.10;20.40;;;14.30;99.90;;;;;;4860422;29;20218;-50
2023/10/31 00:54:28;;;;;;;23.47;21.47;;;14.30;99.90;;;;;;4861656;29;20185;-49
2023/10/31 00:56:54;;;;;;;22.40;20.70;;;14.30;99.90;;;;;;4873896;29;20438;-48
2023/10/31 00:59:20;;;;;;;22.80;21.00;;;14.20;99.90;;;;;;4877080;29;20594;-49
2023/10/31 01:01:45;;;;;;;23.60;21.70;;;14.20;99.90;;;;;;4876748;29;21494;-51
2023/10/31 01:04:11;;;;;;;21.77;20.27;;;14.10;99.90;;;;;;4884871;29;20215;-51
2023/10/31 01:06:41;;;;;;;22.00;20.30;;;14.10;99.90;;;;;;4874393;29;20203;-46
2023/10/31 01:09:07;;;;;;;22.23;20.47;;;14.10;99.90;;;;;;4881200;29;20658;-50
2023/10/31 01:11:32;;;;;;;23.10;21.13;;;14.10;99.90;;;;;;4879015;29;20479;-48
2023/10/31 01:13:58;;;;;;;22.20;20.40;;;14.10;99.90;;;;;;4875659;29;20211;-49
2023/10/31 01:16:24;;;;;;;22.90;21.20;;;14.10;99.90;;;;;;4876013;29;20192;-47
2023/10/31 01:18:49;;;;;;;22.83;21.03;;;14.10;99.90;;;;;;4875411;29;20629;-48
2023/10/31 01:21:15;;;;;;;22.37;20.70;;;14.10;99.90;;;;;;4851838;29;20188;-48
2023/10/31 01:23:40;;;;;;;22.03;20.07;;;14.00;99.90;;;;;;4874055;29;20184;-51
2023/10/31 01:26:06;;;;;;;22.57;20.77;;;14.00;99.90;;;;;;4883100;29;20183;-48
2023/10/31 01:28:31;;;;;;;23.00;21.20;;;14.00;99.90;;;;;;4875190;29;20215;-50
2023/10/31 01:30:57;;;;;;;23.30;21.60;;;14.00;99.90;;;;;;4894797;29;20230;-46
2023/10/31 01:33:23;;;;;;;24.17;22.17;;;14.00;99.90;;;;;;4876547;29;20187;-48
2023/10/31 01:35:48;;;;;;;22.80;20.90;;;14.00;99.90;;;;;;4877373;29;20172;-50
2023/10/31 01:38:14;;;;;;;23.80;21.90;;;14.00;99.90;;;;;;4876454;29;20653;-45
2023/10/31 01:40:39;;;;;;;23.20;21.40;;;13.90;99.90;;;;;;4876499;29;20196;-50
2023/10/31 01:43:05;;;;;;;23.13;21.23;;;13.90;99.90;;;;;;4874760;29;20220;-50
2023/10/31 01:45:30;;;;;;;23.27;21.37;;;13.90;99.90;;;;;;4888577;29;20246;-43
2023/10/31 01:47:57;;;;;;;22.87;20.90;;;13.90;99.90;;;;;;4863290;29;20644;-47
2023/10/31 01:50:23;;;;;;;23.50;21.43;;;13.90;99.90;;;;;;4880335;29;20251;-46
2023/10/31 01:52:48;;;;;;;22.80;21.10;;;13.90;99.90;;;;;;4892011;29;21146;-43
2023/10/31 01:55:15;;;;;;;22.33;20.50;;;13.90;99.90;;;;;;4875239;29;20175;-48
2023/10/31 01:57:40;;;;;;;24.37;22.27;;;13.90;99.90;;;;;;4875024;29;20207;-47
2023/10/31 02:00:07;;;;;;;24.63;22.73;;;13.80;99.90;;;;;;4883981;29;20478;-51
2023/10/31 02:02:34;;;;;;;23.77;21.80;;;13.80;99.90;;;;;;4894546;29;20582;-48
2023/10/31 02:05:00;;;;;;;24.13;22.20;;;13.80;99.90;;;;;;4887863;29;20451;-44
2023/10/31 02:07:25;;;;;;;24.80;22.73;;;13.80;99.90;;;;;;4872546;29;20464;-50
2023/10/31 02:09:52;;;;;;;26.67;24.33;;;13.80;99.90;;;;;;4873812;29;20516;-50
2023/10/31 02:12:37;;;;;;;24.90;22.90;;;13.80;99.90;;;;;;4872798;29;20232;-46
2023/10/31 02:15:03;;;;;;;25.30;23.23;;;13.70;99.90;;;;;;4872463;29;20437;-45
2023/10/31 02:17:29;;;;;;;24.77;22.67;;;13.70;99.90;;;;;;4873657;29;20543;-45
2023/10/31 02:19:54;;;;;;;24.20;22.30;;;13.70;99.90;;;;;;4871662;29;20536;-48
2023/10/31 02:22:20;;;;;;;24.37;22.47;;;13.70;99.90;;;;;;4865754;29;20854;-49
2023/10/31 02:24:46;;;;;;;25.17;22.87;;;13.70;99.90;;;;;;4875859;29;20184;-48
2023/10/31 02:27:11;;;;;;;24.63;22.70;;;13.60;99.90;;;;;;4875531;29;20423;-45
2023/10/31 02:29:39;;;;;;;25.17;23.00;;;13.60;99.90;;;;;;4874898;29;20308;-50
2023/10/31 02:32:05;;;;;;;24.07;22.17;;;13.60;99.90;;;;;;4863362;29;20180;-44
2023/10/31 02:34:30;;;;;;;23.63;21.70;;;13.60;99.90;;;;;;4882518;29;20435;-51
2023/10/31 02:36:56;;;;;;;24.43;22.43;;;13.70;99.90;;;;;;4859072;29;20702;-47
2023/10/31 02:39:22;;;;;;;24.10;22.10;;;13.70;99.90;;;;;;4875277;29;20250;-45
2023/10/31 02:41:47;;;;;;;23.73;21.90;;;13.60;99.90;;;;;;4869993;29;20291;-46
2023/10/31 02:44:15;;;;;;;24.20;22.30;;;13.70;99.90;;;;;;4868789;29;20944;-49
2023/10/31 02:46:41;;;;;;;25.33;23.30;;;13.70;99.90;;;;;;4884635;29;20195;-48
2023/10/31 02:49:08;;;;;;;25.97;23.57;;;13.70;99.90;;;;;;4858544;29;20465;-48
2023/10/31 02:51:34;;;;;;;25.33;23.23;;;13.70;99.90;;;;;;4851153;29;20176;-48
2023/10/31 02:54:00;;;;;;;24.43;22.47;;;13.70;99.90;;;;;;4844546;29;20936;-46
2023/10/31 02:56:26;;;;;;;25.50;23.27;;;13.70;99.90;;;;;;4872111;29;20191;-47
2023/10/31 02:58:51;;;;;;;25.87;23.67;;;13.70;99.90;;;;;;4866992;29;20797;-47
2023/10/31 03:01:19;;;;;;;24.70;22.80;;;13.70;99.90;;;;;;4875867;29;20196;-48
2023/10/31 03:03:45;;;;;;;24.27;22.40;;;13.70;99.90;;;;;;4867115;29;20194;-46
2023/10/31 03:06:11;;;;;;;26.97;24.53;;;13.70;99.90;;;;;;4855180;29;20441;-50
2023/10/31 03:08:36;;;;;;;26.30;24.10;;;13.70;99.90;;;;;;4861166;29;20232;-52
2023/10/31 03:11:02;;;;;;;25.97;23.60;;;13.60;99.90;;;;;;4868156;29;20805;-47
2023/10/31 03:13:28;;;;;;;26.67;24.57;;;13.60;99.90;;;;;;4878782;29;20184;-47
2023/10/31 03:15:53;;;;;;;25.97;23.50;;;13.60;99.90;;;;;;4857092;29;20188;-45
2023/10/31 03:18:19;;;;;;;27.33;24.93;;;13.60;99.90;;;;;;4869536;29;20200;-47
2023/10/31 03:20:48;;;;;;;25.53;23.43;;;13.60;99.90;;;;;;4878521;29;20639;-48
2023/10/31 03:23:14;;;;;;;26.20;24.03;;;13.60;99.90;;;;;;4877765;29;20187;-48
2023/10/31 03:25:40;;;;;;;27.53;25.23;;;13.60;99.90;;;;;;4879550;29;20420;-47
2023/10/31 03:28:19;;;;;;;26.03;23.83;;;13.60;99.90;;;;;;4854785;29;20588;-45
2023/10/31 03:30:45;;;;;;;26.60;24.17;;;13.70;99.90;;;;;;4874698;29;20447;-49
2023/10/31 03:33:11;;;;;;;28.00;25.50;;;13.60;99.90;;;;;;4872809;29;20432;-46
2023/10/31 03:35:36;;;;;;;27.70;25.30;;;13.60;99.90;;;;;;4869644;29;20421;-47
2023/10/31 03:38:02;;;;;;;27.47;24.97;;;13.70;99.90;;;;;;4870672;29;20251;-52
2023/10/31 03:40:28;;;;;;;27.17;24.67;;;13.60;99.90;;;;;;4875764;29;20203;-46
2023/10/31 03:42:54;;;;;;;27.80;25.30;;;13.60;99.90;;;;;;4878542;29;20464;-47
2023/10/31 03:45:20;;;;;;;26.40;24.10;;;13.60;99.90;;;;;;4869984;29;20492;-46
2023/10/31 03:47:45;;;;;;;28.43;25.90;;;13.60;99.90;;;;;;4885470;29;20223;-47
2023/10/31 03:50:11;;;;;;;29.20;26.30;;;13.60;99.90;;;;;;4876980;29;20218;-52
2023/10/31 03:52:36;;;;;;;27.20;24.67;;;13.70;99.90;;;;;;4884438;29;20563;-50
2023/10/31 03:55:02;;;;;;;29.63;26.80;;;13.60;99.90;;;;;;4877966;29;20188;-49
2023/10/31 03:57:28;;;;;;;28.77;26.07;;;13.60;99.90;;;;;;4887257;29;20191;-50
2023/10/31 03:59:53;;;;;;;29.67;26.87;;;13.60;99.90;;;;;;4877990;29;20188;-46
2023/10/31 04:02:19;;;;;;;28.23;25.17;;;13.60;99.90;;;;;;4879705;29;20212;-45
2023/10/31 04:04:44;;;;;;;27.37;24.87;;;13.60;99.90;;;;;;4873016;29;20223;-49
2023/10/31 04:07:10;;;;;;;26.27;24.07;;;13.60;99.90;;;;;;4874924;29;20183;-45
2023/10/31 04:09:36;;;;;;;25.47;23.30;;;13.50;99.90;;;;;;4876205;29;20211;-51
2023/10/31 04:12:01;;;;;;;25.00;22.90;;;13.50;99.90;;;;;;4883757;29;20281;-42
2023/10/31 04:14:27;;;;;;;25.10;22.80;;;13.50;99.90;;;;;;4873379;29;20184;-47
2023/10/31 04:16:52;;;;;;;23.87;21.87;;;13.40;99.90;;;;;;4875739;29;20676;-51
2023/10/31 04:19:18;;;;;;;23.17;21.10;;;13.40;99.90;;;;;;4873657;29;20189;-42
2023/10/31 04:21:43;;;;;;;23.33;21.40;;;13.40;99.90;;;;;;4877283;29;20223;-48
2023/10/31 04:24:09;;;;;;;23.07;21.07;;;13.50;99.90;;;;;;4886210;29;20587;-49
2023/10/31 04:26:35;;;;;;;24.23;21.73;;;13.40;99.90;;;;;;4877275;29;20212;-48
2023/10/31 04:29:00;;;;;;;22.50;20.70;;;13.40;99.90;;;;;;4887241;29;20207;-49
2023/10/31 04:31:26;;;;;;;24.30;22.20;;;13.30;99.90;;;;;;4863407;29;20209;-50
2023/10/31 04:33:51;;;;;;;23.20;21.30;;;13.30;99.90;;;;;;4887095;29;20270;-46
2023/10/31 04:36:17;;;;;;;22.83;20.93;;;13.30;99.90;;;;;;4871194;29;20664;-48
2023/10/31 04:38:42;;;;;;;22.43;20.57;;;13.30;99.90;;;;;;4872243;29;20311;-49
2023/10/31 04:41:09;;;;;;;21.97;20.30;;;13.20;99.90;;;;;;4858958;29;20196;-45
2023/10/31 04:43:35;;;;;;;22.30;20.60;;;13.20;99.90;;;;;;4881611;29;20647;-51
2023/10/31 04:46:00;;;;;;;21.97;20.17;;;13.20;99.90;;;;;;4877280;29;20436;-46
2023/10/31 04:48:26;;;;;;;21.40;19.80;;;13.20;99.90;;;;;;4882484;29;20208;-45
2023/10/31 04:50:52;;;;;;;18.97;17.53;;;13.20;99.90;;;;;;4866661;29;20344;-48
2023/10/31 04:53:17;;;;;;;18.73;17.53;;;13.20;99.90;;;;;;4856670;29;20195;-43
2023/10/31 04:55:43;;;;;;;17.00;16.00;;;13.20;99.90;;;;;;4876924;29;20212;-48
2023/10/31 04:58:08;;;;;;;18.10;16.90;;;13.20;99.90;;;;;;4852305;29;20681;-48
2023/10/31 05:00:35;;;;;;;17.50;16.20;;;13.20;99.90;;;;;;4860300;29;20256;-41
2023/10/31 05:03:02;;;;;;;17.80;16.60;;;13.20;99.90;;;;;;4876330;29;20599;-49
2023/10/31 05:05:28;;;;;;;17.63;16.53;;;13.20;99.90;;;;;;4864663;29;20474;-47
2023/10/31 05:07:53;;;;;;;16.37;15.43;;;13.20;99.90;;;;;;4871022;29;20514;-49
2023/10/31 05:10:23;;;;;;;16.70;15.70;;;13.20;99.90;;;;;;4876625;29;20540;-43
2023/10/31 05:12:48;;;;;;;16.80;15.90;;;13.20;99.90;;;;;;4881080;29;20219;-48
2023/10/31 05:15:14;;;;;;;16.30;15.33;;;13.20;99.90;;;;;;4875273;29;20760;-47
2023/10/31 05:17:39;;;;;;;16.03;15.13;;;13.20;99.90;;;;;;4871248;29;20187;-46
2023/10/31 05:20:09;;;;;;;16.50;15.50;;;13.20;99.90;;;;;;4855274;29;20199;-49
2023/10/31 05:22:35;;;;;;;15.73;14.80;;;13.20;99.90;;;;;;4862370;29;20183;-47
2023/10/31 05:25:00;;;;;;;16.10;15.10;;;13.20;99.90;;;;;;4884367;29;20880;-45
2023/10/31 05:27:26;;;;;;;15.67;14.67;;;13.10;99.90;;;;;;4870806;29;20501;-48
2023/10/31 05:29:51;;;;;;;15.83;14.93;;;13.10;99.90;;;;;;4883211;29;20565;-48
2023/10/31 05:32:17;;;;;;;16.03;15.13;;;13.10;99.90;;;;;;4872617;29;20191;-45
2023/10/31 05:34:43;;;;;;;15.27;14.07;;;13.10;99.90;;;;;;4881171;29;20188;-45
2023/10/31 05:37:08;;;;;;;13.90;13.10;;;13.10;99.90;;;;;;4870834;29;20191;-47
2023/10/31 05:39:36;;;;;;;14.70;13.80;;;13.00;99.90;;;;;;4877982;29;20590;-45
2023/10/31 05:42:02;;;;;;;13.90;13.20;;;13.00;99.90;;;;;;4874576;29;20188;-48
2023/10/31 05:44:28;;;;;;;14.17;13.37;;;13.00;99.90;;;;;;4857145;29;20806;-49
2023/10/31 05:46:54;;;;;;;13.67;12.97;;;13.10;99.90;;;;;;4865157;29;20440;-48
2023/10/31 05:49:19;;;;;;;13.90;13.20;;;13.10;99.90;;;;;;4875266;29;20265;-48
2023/10/31 05:51:50;;;;;;;13.93;13.13;;;13.10;99.90;;;;;;4887027;29;20647;-49
2023/10/31 05:54:16;;;;;;;14.20;13.43;;;13.00;99.90;;;;;;4865194;29;20958;-47
2023/10/31 05:56:42;;;;;;;14.03;13.33;;;13.00;99.90;;;;;;4876317;29;20436;-48
2023/10/31 05:59:08;;;;;;;14.30;13.53;;;13.00;99.90;;;;;;4879697;29;20195;-47
2023/10/31 06:01:33;;;;;;;13.80;13.10;;;13.10;99.90;;;;;;4871636;29;20444;-49
2023/10/31 06:03:59;;;;;;;13.47;12.87;;;13.00;99.90;;;;;;4873478;29;20185;-49
2023/10/31 06:06:24;;;;;;;14.20;13.50;;;13.00;99.90;;;;;;4875092;29;20622;-41
2023/10/31 06:08:50;;;;;;;13.43;12.83;;;13.10;99.90;;;;;;4871612;29;20294;-49
2023/10/31 06:11:16;;;;;;;13.57;12.87;;;13.00;99.90;;;;;;4868030;29;20240;-48
2023/10/31 06:13:41;;;;;;;12.90;12.30;;;13.10;99.90;;;;;;4869797;29;20642;-47
2023/10/31 06:16:08;;;;;;;13.30;12.70;;;13.10;99.90;;;;;;4876199;29;20658;-47
2023/10/31 06:18:34;;;;;;;13.60;12.90;;;13.10;99.90;;;;;;4874246;29;20207;-49
2023/10/31 06:21:00;;;;;;;13.50;12.80;;;13.10;99.90;;;;;;4864323;29;20436;-47
2023/10/31 06:23:25;;;;;;;12.93;12.33;;;13.10;99.90;;;;;;4875777;29;20435;-48
2023/10/31 06:25:51;;;;;;;13.10;12.50;;;13.20;99.90;;;;;;4878449;29;20255;-46
2023/10/31 06:28:17;;;;;;;13.20;12.60;;;13.20;99.90;;;;;;4875758;29;20203;-46
2023/10/31 06:30:42;;;;;;;13.50;12.90;;;13.20;99.90;;;;;;4877224;29;20299;-48
2023/10/31 06:33:08;;;;;;;13.53;12.83;;;13.10;99.90;;;;;;4873747;29;20192;-48
2023/10/31 06:35:34;;;;;;;13.20;12.50;;;13.10;99.90;;;;;;4878074;29;20714;-45
2023/10/31 06:38:01;;;;;;;13.10;12.40;;;13.20;99.90;;;;;;4875470;29;20531;-50
2023/10/31 06:40:26;;;;;;;12.87;12.27;;;13.30;99.90;;;;;;4886327;29;20176;-45
2023/10/31 06:42:52;;;;;;;12.90;12.30;;;13.30;99.90;;;;;;4876102;29;20447;-45
2023/10/31 06:45:18;;;;;;;13.13;12.50;;;13.40;99.90;;;;;;4884612;29;20218;-46
2023/10/31 06:47:44;;;;;;;12.53;11.90;;;13.30;99.90;;;;;;4880053;29;20196;-49
2023/10/31 06:50:10;;;;;;;12.30;11.80;;;13.40;99.90;;;;;;4886167;29;20899;-47
2023/10/31 06:52:36;;;;;;;12.20;11.70;;;13.40;99.90;;;;;;4863039;29;20432;-49
2023/10/31 06:55:01;;;;;;;12.00;11.50;;;13.40;99.90;;;;;;4877609;29;20215;-51
2023/10/31 06:57:27;;;;;;;12.20;11.70;;;13.40;99.90;;;;;;4879719;29;20655;-45
2023/10/31 06:59:53;;;;;;;11.90;11.40;;;13.40;99.90;;;;;;4880463;29;20223;-49
2023/10/31 07:02:18;;;;;;;11.60;11.10;;;13.40;99.90;;;;;;4877561;29;20198;-49
2023/10/31 07:04:44;;;;;;;11.93;11.43;;;13.40;99.90;;;;;;4865735;29;20188;-51
2023/10/31 07:07:09;;;;;;;12.00;11.50;;;13.40;99.90;;;;;;4864949;29;20200;-47
2023/10/31 07:09:35;;;;;;;11.80;11.30;;;13.40;99.90;;;;;;4863761;29;20733;-46
2023/10/31 07:12:01;;;;;;;12.47;11.63;;;13.30;99.90;;;;;;4858480;29;20243;-42
2023/10/31 07:14:27;;;;;;;11.60;11.10;;;13.40;99.90;;;;;;4867568;29;20176;-48
2023/10/31 07:16:54;;;;;;;11.67;11.17;;;13.30;99.90;;;;;;4859301;29;20441;-51
2023/10/31 07:19:20;;;;;;;12.07;11.57;;;13.40;99.90;;;;;;4844041;29;20203;-48
2023/10/31 07:21:46;;;;;;;11.80;11.30;;;13.50;99.90;;;;;;4845162;29;20800;-50
2023/10/31 07:24:12;;;;;;;11.87;11.27;;;13.50;98.00;;;;;;4854271;29;20441;-42
2023/10/31 07:26:38;;;;;;;11.50;11.00;;;13.50;97.50;;;;;;4858297;29;20643;-49
2023/10/31 07:29:03;;;;;;;11.70;11.20;;;13.50;82.50;;;;;;4856067;29;20222;-49
2023/10/31 07:31:29;;;;;;;11.50;11.00;;;13.50;70.30;;;;;;4869865;29;20187;-46
2023/10/31 07:33:56;;;;;;;11.50;11.00;;;13.50;61.80;;;;;;4854841;29;20189;-47
2023/10/31 07:36:21;;;;;;;11.63;11.07;;;13.50;59.60;;;;;;4860095;29;20195;-50
2023/10/31 07:38:47;;;;;;;10.83;10.33;;;13.60;50.30;;;;;;4856573;29;20449;-47
2023/10/31 07:41:13;;;;;;;11.20;10.70;;;13.50;30.40;;;;;;4857904;29;20272;-41
2023/10/31 07:43:39;;;;;;;11.63;11.13;;;13.60;49.20;;;;;;4856688;29;20435;-42
2023/10/31 07:46:04;;;;;;;11.60;11.10;;;13.60;18.10;;;;;;4854537;29;20193;-41
2023/10/31 07:48:31;;;;;;;11.20;10.70;;;13.60;7.50;;;;;;4858869;29;20231;-43
2023/10/31 07:50:57;;;;;;;11.50;11.00;;;13.60;9.40;;;;;;4857485;29;20191;-44
2023/10/31 07:53:22;;;;;;;11.60;11.10;;;13.70;15.30;;;;;;4853745;29;20804;-49
2023/10/31 07:55:48;;;;;;;11.63;11.10;;;13.70;8.30;;;;;;4852264;29;20185;-44
2023/10/31 07:58:14;;;;;;;11.53;11.03;;;13.70;5.30;;;;;;4856922;29;20195;-42
2023/10/31 08:00:40;;;;;;;14.60;13.70;;;13.80;1.00;;;;;;4854096;29;21109;-45
2023/10/31 08:03:06;;;;;;;11.73;11.23;;;13.80;1.00;;;;;;4851159;29;20477;-47
2023/10/31 08:05:32;;;;;;;11.97;11.43;;;13.80;1.00;;;;;;4861030;29;20519;-48
2023/10/31 08:07:58;;;;;;;11.77;11.17;;;13.80;1.00;;;;;;4852222;29;20247;-52
2023/10/31 08:10:24;;;;;;;11.37;10.90;;;13.90;1.00;;;;;;4847000;29;20211;-45
2023/10/31 08:12:49;;;;;;;11.53;11.03;;;13.90;1.00;;;;;;4864546;29;21017;-46
2023/10/31 08:15:16;;;;;;;11.30;10.80;;;13.90;1.00;;;;;;4853273;29;20217;-53
2023/10/31 08:17:42;;;;;;;11.27;10.73;;;13.90;1.00;;;;;;4859232;29;20692;-50
2023/10/31 08:20:09;;;;;;;11.40;10.90;;;13.90;1.00;;;;;;4855557;29;20437;-51
2023/10/31 08:22:35;;;;;;;10.63;10.13;;;14.00;1.00;;;;;;4851613;29;20445;-47
2023/10/31 08:25:01;;;;;;;11.07;10.57;;;13.90;1.00;;;;;;4855077;29;20959;-46
2023/10/31 08:27:27;;;;;;;11.30;10.80;;;14.00;1.00;;;;;;4854942;29;20420;-50
2023/10/31 08:29:52;;;;;;;11.53;11.03;;;14.00;1.00;;;;;;4853246;29;20468;-51
2023/10/31 08:32:18;;;;;;;11.30;10.80;;;14.10;1.00;;;;;;4853282;29;20218;-46
2023/10/31 08:34:43;;;;;;;11.10;10.40;;;14.10;1.00;;;;;;4851241;29;21110;-50
2023/10/31 08:37:09;;;;;;;11.00;10.50;;;14.10;1.00;;;;;;4853728;29;21197;-47
2023/10/31 08:39:35;;;;;;;10.63;10.23;;;14.20;1.00;;;;;;4861689;29;20227;-47
2023/10/31 08:42:00;;;;;;;10.67;10.27;;;14.20;1.00;;;;;;4857350;29;20204;-54
2023/10/31 08:44:27;;;;;;;10.60;10.20;;;14.20;1.00;;;;;;4859745;29;20204;-53
2023/10/31 08:46:52;;;;;;;11.10;10.70;;;14.30;1.00;;;;;;4861852;29;20196;-46
2023/10/31 08:49:18;;;;;;;11.20;10.70;;;14.30;1.00;;;;;;4864280;29;20469;-46
2023/10/31 08:51:44;;;;;;;10.83;10.40;;;14.40;99.90;;;;;;4861689;29;20187;-48
2023/10/31 08:54:11;;;;;;;11.30;10.80;;;14.50;1.00;;;;;;4855025;29;20188;-52
2023/10/31 08:56:36;;;;;;;10.90;10.50;;;14.70;1.00;;;;;;4857078;29;20544;-50
2023/10/31 08:59:02;;;;;;;10.13;9.73;;;14.70;22.60;;;;;;4856382;29;20496;-49
2023/10/31 09:01:31;;;;;;;10.63;10.23;;;14.70;99.90;;;;;;4852614;29;20192;-46
2023/10/31 09:03:58;;;;;;;10.90;10.40;;;14.70;1.00;;;;;;4849835;29;21139;-50
2023/10/31 09:06:24;;;;;;;10.73;10.33;;;14.80;99.90;;;;;;4836878;29;21046;-47
2023/10/31 09:08:49;;;;;;;11.27;10.67;;;14.90;1.00;;;;;;4850865;29;20460;-50
2023/10/31 09:11:15;;;;;;;10.90;10.40;;;14.80;99.90;;;;;;4851246;29;20236;-49
2023/10/31 09:13:41;;;;;;;10.83;10.43;;;15.00;99.90;;;;;;4853922;29;20216;-50
2023/10/31 09:16:07;;;;;;;11.10;10.60;;;15.30;1.00;;;;;;4852623;29;20312;-49
2023/10/31 09:18:33;;;;;;;11.00;10.50;;;15.90;99.90;;;;;;4857324;29;20183;-49
2023/10/31 09:20:58;;;;;;;10.80;10.30;;;16.60;99.90;;;;;;4860915;29;20456;-50
2023/10/31 09:23:24;;;;;;;10.90;10.50;;;17.20;1.00;;;;;;4852266;29;20223;-49
2023/10/31 09:25:49;;;;;;;10.87;10.47;;;17.60;1.00;;;;;;4851687;29;20196;-50
2023/10/31 09:28:15;;;;;;;11.20;10.73;;;17.50;1.00;;;;;;4857715;29;20390;-46
2023/10/31 09:30:41;;;;;;;10.77;10.33;;;17.60;99.90;;;;;;4849659;29;20232;-48
2023/10/31 09:33:06;;;;;;;10.47;10.07;;;17.90;99.90;;;;;;4850670;29;20596;-46
2023/10/31 09:35:32;;;;;;;10.70;10.30;;;18.10;1.00;;;;;;4851405;29;20195;-47
2023/10/31 09:37:57;;;;;;;11.33;10.83;;;18.30;1.00;;;;;;4851038;29;20267;-47
2023/10/31 09:40:23;;;;;;;11.10;10.60;;;17.90;1.00;;;;;;4856414;29;20185;-45
2023/10/31 09:42:49;;;;;;;10.70;10.30;;;17.60;1.00;;;;;;4857930;29;20196;-48
2023/10/31 09:45:15;;;;;;;10.87;10.43;;;17.60;1.00;;;;;;4853003;29;20193;-48
2023/10/31 09:47:42;;;;;;;11.20;10.80;;;17.80;1.00;;;;;;4853412;29;20193;-49
2023/10/31 09:50:09;;;;;;;11.20;10.70;;;17.90;1.00;;;;;;4853813;29;20440;-47
2023/10/31 09:52:36;;;;;;;10.77;10.37;;;17.50;1.00;;;;;;4851253;29;20485;-48
2023/10/31 09:55:05;;;;;;;11.10;10.70;;;17.30;1.00;;;;;;4852142;29;20424;-48
2023/10/31 09:57:31;;;;;;;11.00;10.60;;;17.30;1.00;;;;;;4856879;29;20496;-49
2023/10/31 09:59:57;;;;;;;11.40;10.90;;;16.80;1.00;;;;;;4851717;29;20467;-49
2023/10/31 10:02:22;;;;;;;10.97;10.50;;;16.40;1.00;;;;;;4851517;29;20444;-48
2023/10/31 10:04:49;;;;;;;11.23;10.73;;;15.80;1.00;;;;;;4852044;29;20232;-51
2023/10/31 10:07:19;;;;;;;10.90;10.40;;;15.90;1.00;;;;;;4859817;29;20203;-48
2023/10/31 10:09:48;;;;;;;11.37;10.87;;;16.10;22.90;;;;;;4857971;29;20864;-46
2023/10/31 10:12:16;;;;;;;11.03;10.53;;;16.10;1.00;;;;;;4854919;29;20479;-48
2023/10/31 10:14:44;;;;;;;10.57;10.07;;;16.40;1.00;;;;;;4841683;29;20459;-47
2023/10/31 10:17:23;;;;;;;11.10;10.70;;;16.70;1.00;;;;;;4851804;29;20459;-47
2023/10/31 10:20:11;;;;;;;11.20;10.70;;;16.80;1.00;;;;;;4849476;29;20437;-50
2023/10/31 10:22:42;;;;;;;11.50;11.00;;;16.70;1.00;;;;;;4849945;29;20421;-48
2023/10/31 10:25:08;;;;;;;11.50;11.00;;;16.70;1.00;;;;;;4852383;29;20947;-49
2023/10/31 10:27:36;;;;;;;10.37;9.97;;;16.90;1.00;;;;;;4851814;29;20473;-46
2023/10/31 10:30:03;;;;;;;11.23;10.73;;;16.90;1.00;;;;;;4858338;29;20839;-50
2023/10/31 10:32:28;;;;;;;11.00;10.60;;;17.10;1.00;;;;;;4856388;29;20494;-46
2023/10/31 10:34:54;;;;;;;10.83;10.40;;;16.80;1.00;;;;;;4853047;29;20451;-50
2023/10/31 10:37:21;;;;;;;10.97;10.57;;;16.80;1.00;;;;;;4859964;29;20322;-49
2023/10/31 10:39:55;;;;;;;11.07;10.57;;;17.00;1.00;;;;;;4838469;29;20444;-46
2023/10/31 10:42:30;;;;;;;10.83;10.43;;;17.30;1.00;;;;;;4858125;29;20670;-46
2023/10/31 10:45:02;;;;;;;10.90;10.50;;;17.50;1.00;;;;;;4855197;29;20939;-47
2023/10/31 10:47:28;;;;;;;10.17;9.77;;;17.40;1.00;;;;;;4857946;29;20472;-50
2023/10/31 10:49:58;;;;;;;11.40;10.90;;;17.30;1.00;;;;;;4853422;29;20521;-51
2023/10/31 10:52:28;;;;;;;10.63;10.20;;;17.70;1.00;;;;;;4855778;29;20444;-47
2023/10/31 10:55:01;;;;;;;11.10;10.60;;;18.40;1.00;;;;;;4854745;29;20448;-49
2023/10/31 10:58:03;;;;;;;11.57;11.07;;;18.90;1.00;;;;;;4848349;29;20441;-51
2023/10/31 11:00:29;;;;;;;10.27;9.87;;;18.90;99.90;;;;;;4850134;29;20991;-44
2023/10/31 11:02:56;;;;;;;10.90;10.50;;;18.60;99.90;;;;;;4832613;29;20593;-54
2023/10/31 11:05:24;;;;;;;10.57;10.17;;;18.30;99.90;;;;;;4837829;29;20943;-46
2023/10/31 11:07:51;;;;;;;10.90;10.40;;;17.10;99.90;;;;;;4851014;29;20417;-49
2023/10/31 11:10:17;;;;;;;10.80;10.40;;;17.00;1.00;;;;;;4857087;29;20435;-50
2023/10/31 11:12:43;;;;;;;10.37;9.93;;;16.80;1.00;;;;;;4851778;29;20907;-52
2023/10/31 11:15:15;;;;;;;11.50;11.00;;;16.70;1.00;;;;;;4853971;29;20822;-52
2023/10/31 11:17:43;;;;;;;10.87;10.37;;;16.40;1.00;;;;;;4851779;29;20449;-51
2023/10/31 11:20:16;;;;;;;11.30;10.80;;;16.20;1.00;;;;;;4861879;29;20476;-52
2023/10/31 11:22:49;;;;;;;11.20;10.80;;;16.00;1.00;;;;;;4857995;29;20481;-52
2023/10/31 11:25:23;;;;;;;11.70;11.20;;;15.80;1.00;;;;;;4843491;29;20452;-51
2023/10/31 11:27:50;;;;;;;11.20;10.70;;;15.70;1.00;;;;;;4854076;29;21333;-49
2023/10/31 11:30:25;;;;;;;11.47;10.97;;;15.60;1.00;;;;;;4858838;29;20472;-52
2023/10/31 11:32:55;;;;;;;10.53;10.13;;;15.60;1.00;;;;;;4837357;29;20416;-53
2023/10/31 11:35:23;;;;;;;11.63;11.23;;;15.50;1.00;;;;;;4860940;29;20444;-51
2023/10/31 11:38:00;;;;;;;11.40;10.90;;;15.50;1.00;;;;;;4853923;29;20480;-53
2023/10/31 11:40:25;;;;;;;11.73;11.00;;;15.60;1.00;;;;;;4852570;29;20441;-48
2023/10/31 11:42:54;;;;;;;11.50;11.00;;;15.70;1.00;;;;;;4851451;29;20820;-50
2023/10/31 11:45:41;;;;;;;11.77;11.17;;;15.80;1.00;;;;;;4861174;29;20216;-50
2023/10/31 11:48:08;;;;;;;11.87;11.37;;;16.00;1.00;;;;;;4853283;29;20571;-47
2023/10/31 11:50:34;;;;;;;11.33;10.83;;;16.10;1.00;;;;;;4855514;29;20445;-48
2023/10/31 11:53:00;;;;;;;11.00;10.50;;;16.30;1.00;;;;;;4856429;29;20444;-51
2023/10/31 11:55:27;;;;;;;11.10;10.70;;;16.40;1.00;;;;;;4855354;29;20936;-51
2023/10/31 11:57:53;;;;;;;11.53;11.07;;;16.30;1.00;;;;;;4867237;29;20935;-49
2023/10/31 12:00:22;;;;;;;11.50;11.00;;;16.30;1.00;;;;;;4851055;29;20443;-50
2023/10/31 12:03:01;;;;;;;10.90;10.33;;;16.20;1.00;;;;;;4868278;29;20192;-48
2023/10/31 12:05:27;;;;;;;11.40;10.90;;;15.90;1.00;;;;;;4856384;29;20497;-44
2023/10/31 12:07:53;;;;;;;11.43;10.93;;;15.50;1.00;;;;;;4853455;29;21295;-49
2023/10/31 12:10:29;;;;;;;10.70;10.30;;;15.20;1.00;;;;;;4856028;29;20432;-50
2023/10/31 12:12:55;;;;;;;10.70;10.30;;;15.20;1.00;;;;;;4859959;29;20540;-49
2023/10/31 12:15:21;;;;;;;10.63;10.23;;;15.30;1.00;;;;;;4841939;29;20437;-47
2023/10/31 12:17:46;;;;;;;11.37;10.87;;;15.10;1.00;;;;;;4863169;29;20475;-52
2023/10/31 12:20:12;;;;;;;10.93;10.53;;;15.00;1.00;;;;;;4862399;29;20185;-53
2023/10/31 12:22:40;;;;;;;11.10;10.70;;;15.00;1.00;;;;;;4868675;29;20198;-49
2023/10/31 12:25:08;;;;;;;10.60;10.20;;;15.00;1.00;;;;;;4863256;29;20203;-52
2023/10/31 12:27:54;;;;;;;11.27;10.77;;;15.10;1.00;;;;;;4867220;29;20424;-50